createdAt,value
2023-04-07T00:00:00.471Z,10.60
2023-04-07T00:00:14.071Z,10.75
2023-04-07T00:00:47.993Z,10.18
2023-04-07T00:01:06.588Z,10.93
2023-04-07T00:01:20.293Z,11.27
2023-04-07T00:01:32.983Z,10.73
2023-04-07T00:01:45.743Z,10.55
2023-04-07T00:01:58.472Z,10.70
2023-04-07T00:02:11.454Z,10.77
2023-04-07T00:02:24.379Z,10.65
2023-04-07T00:02:37.707Z,10.82
2023-04-07T00:02:51.839Z,10.85
2023-04-07T00:03:07.445Z,10.80
2023-04-07T00:03:20.791Z,10.63
2023-04-07T00:03:33.921Z,10.57
2023-04-07T00:03:46.684Z,10.60
2023-04-07T00:03:59.733Z,10.57
2023-04-07T00:04:13.861Z,10.95
2023-04-07T00:04:26.764Z,11.35
2023-04-07T00:04:39.690Z,10.90
2023-04-07T00:04:52.390Z,10.65
2023-04-07T00:05:05.891Z,10.77
2023-04-07T00:05:18.826Z,10.90
2023-04-07T00:05:31.403Z,10.45
2023-04-07T00:05:44.052Z,10.70
2023-04-07T00:05:57.701Z,10.77
2023-04-07T00:06:10.525Z,10.75
2023-04-07T00:06:23.432Z,10.82
2023-04-07T00:06:36.201Z,10.85
2023-04-07T00:06:48.842Z,10.70
2023-04-07T00:07:01.610Z,10.70
2023-04-07T00:07:14.189Z,11.18
2023-04-07T00:07:27.804Z,11.02
2023-04-07T00:07:52.234Z,10.77
2023-04-07T00:08:08.230Z,10.82
2023-04-07T00:08:20.866Z,10.88
2023-04-07T00:08:34.463Z,11.05
2023-04-07T00:08:47.057Z,11.15
2023-04-07T00:08:59.728Z,11.32
2023-04-07T00:09:12.332Z,11.40
2023-04-07T00:09:25.118Z,11.23
2023-04-07T00:09:37.772Z,10.98
2023-04-07T00:09:51.381Z,11.00
2023-04-07T00:10:04.329Z,10.70
2023-04-07T00:10:17.211Z,10.77
2023-04-07T00:10:30.078Z,11.00
2023-04-07T00:10:42.956Z,10.98
2023-04-07T00:10:55.854Z,10.93
2023-04-07T00:11:09.932Z,10.95
2023-04-07T00:11:22.628Z,10.77
2023-04-07T00:11:35.351Z,10.43
2023-04-07T00:11:48.793Z,10.70
2023-04-07T00:12:02.725Z,11.20
2023-04-07T00:12:15.586Z,11.20
2023-04-07T00:12:28.218Z,11.23
2023-04-07T00:12:40.906Z,11.40
2023-04-07T00:12:54.598Z,11.32
2023-04-07T00:13:07.205Z,10.95
2023-04-07T00:13:19.834Z,10.70
2023-04-07T00:13:32.460Z,10.93
2023-04-07T00:13:45.516Z,11.15
2023-04-07T00:13:58.402Z,11.02
2023-04-07T00:14:11.099Z,10.80
2023-04-07T00:14:24.662Z,10.95
2023-04-07T00:14:37.270Z,11.02
2023-04-07T00:14:49.881Z,11.00
2023-04-07T00:15:02.629Z,11.00
2023-04-07T00:15:15.225Z,10.85
2023-04-07T00:15:28.105Z,10.80
2023-04-07T00:15:40.714Z,10.80
2023-04-07T00:15:55.784Z,11.10
2023-04-07T00:16:09.187Z,10.82
2023-04-07T00:16:21.869Z,10.80
2023-04-07T00:16:34.564Z,10.95
2023-04-07T00:16:47.158Z,10.88
2023-04-07T00:16:59.807Z,11.13
2023-04-07T00:17:12.417Z,11.02
2023-04-07T00:17:26.180Z,10.73
2023-04-07T00:17:38.840Z,11.20
2023-04-07T00:17:51.749Z,11.27
2023-04-07T00:18:04.714Z,10.75
2023-04-07T00:18:17.353Z,10.43
2023-04-07T00:18:29.943Z,10.20
2023-04-07T00:18:42.563Z,10.38
2023-04-07T00:18:56.266Z,10.60
2023-04-07T00:19:08.855Z,10.77
2023-04-07T00:19:21.519Z,10.60
2023-04-07T00:19:34.193Z,10.55
2023-04-07T00:19:46.821Z,11.05
2023-04-07T00:19:59.490Z,10.98
2023-04-07T00:20:12.895Z,11.05
2023-04-07T00:20:26.709Z,11.35
2023-04-07T00:20:39.353Z,11.40
2023-04-07T00:20:52.095Z,11.27
2023-04-07T00:21:04.930Z,10.98
2023-04-07T00:21:17.533Z,11.02
2023-04-07T00:21:31.423Z,10.98
2023-04-07T00:21:44.156Z,10.85
2023-04-07T00:21:56.716Z,10.90
2023-04-07T00:22:09.356Z,10.93
2023-04-07T00:22:22.457Z,10.75
2023-04-07T00:22:35.146Z,10.80
2023-04-07T00:22:47.782Z,10.73
2023-04-07T00:23:01.393Z,10.48
2023-04-07T00:23:14.138Z,10.30
2023-04-07T00:23:27.189Z,10.68
2023-04-07T00:23:39.995Z,10.95
2023-04-07T00:23:53.089Z,10.68
2023-04-07T00:24:06.122Z,10.20
2023-04-07T00:24:27.494Z,10.60
2023-04-07T00:24:47.481Z,11.23
2023-04-07T00:25:00.176Z,11.20
2023-04-07T00:25:12.886Z,10.98
2023-04-07T00:25:25.966Z,10.98
2023-04-07T00:25:38.718Z,10.95
2023-04-07T00:25:51.433Z,11.27
2023-04-07T00:26:04.220Z,11.25
2023-04-07T00:26:16.870Z,11.05
2023-04-07T00:26:32.644Z,11.07
2023-04-07T00:26:45.353Z,11.23
2023-04-07T00:26:57.986Z,11.05
2023-04-07T00:27:10.694Z,10.82
2023-04-07T00:27:23.465Z,10.88
2023-04-07T00:27:36.159Z,10.60
2023-04-07T00:27:49.299Z,10.85
2023-04-07T00:28:01.889Z,11.05
2023-04-07T00:28:14.513Z,10.90
2023-04-07T00:28:28.196Z,11.02
2023-04-07T00:28:40.929Z,11.43
2023-04-07T00:28:53.551Z,11.25
2023-04-07T00:29:06.420Z,10.75
2023-04-07T00:29:19.081Z,10.65
2023-04-07T00:29:31.763Z,10.70
2023-04-07T00:29:46.551Z,11.27
2023-04-07T00:30:00.205Z,11.27
2023-04-07T00:30:13.110Z,11.00
2023-04-07T00:30:25.770Z,11.00
2023-04-07T00:30:38.359Z,11.05
2023-04-07T00:30:51.002Z,11.13
2023-04-07T00:31:05.109Z,10.82
2023-04-07T00:31:18.654Z,10.50
2023-04-07T00:31:32.316Z,10.68
2023-04-07T00:31:44.984Z,11.13
2023-04-07T00:31:57.676Z,11.45
2023-04-07T00:32:10.426Z,11.00
2023-04-07T00:32:23.141Z,11.10
2023-04-07T00:32:36.574Z,11.25
2023-04-07T00:32:49.415Z,11.30
2023-04-07T00:33:02.545Z,11.43
2023-04-07T00:33:16.268Z,11.38
2023-04-07T00:33:28.892Z,10.88
2023-04-07T00:33:41.506Z,10.75
2023-04-07T00:33:54.360Z,11.02
2023-04-07T00:34:07.104Z,11.45
2023-04-07T00:34:19.701Z,11.43
2023-04-07T00:34:32.291Z,11.20
2023-04-07T00:34:44.886Z,11.35
2023-04-07T00:34:58.540Z,11.50
2023-04-07T00:35:15.013Z,10.98
2023-04-07T00:35:27.751Z,11.10
2023-04-07T00:35:40.371Z,11.60
2023-04-07T00:35:54.465Z,11.23
2023-04-07T00:36:07.560Z,11.38
2023-04-07T00:36:21.192Z,11.20
2023-04-07T00:36:34.034Z,10.82
2023-04-07T00:36:52.039Z,10.88
2023-04-07T00:37:06.376Z,11.18
2023-04-07T00:37:19.486Z,11.10
2023-04-07T00:37:32.224Z,11.27
2023-04-07T00:37:46.066Z,11.24
2023-04-07T00:37:59.297Z,10.70
2023-04-07T00:38:11.945Z,10.70
2023-04-07T00:38:24.687Z,11.32
2023-04-07T00:38:37.291Z,11.70
2023-04-07T00:38:49.928Z,11.50
2023-04-07T00:39:02.660Z,11.27
2023-04-07T00:39:16.249Z,11.40
2023-04-07T00:39:28.943Z,11.38
2023-04-07T00:39:41.560Z,10.98
2023-04-07T00:39:54.165Z,10.55
2023-04-07T00:40:07.956Z,11.13
2023-04-07T00:40:21.119Z,11.43
2023-04-07T00:40:34.046Z,10.98
2023-04-07T00:40:47.824Z,10.90
2023-04-07T00:41:00.830Z,11.10
2023-04-07T00:41:13.495Z,10.98
2023-04-07T00:41:26.208Z,11.15
2023-04-07T00:41:38.819Z,11.27
2023-04-07T00:41:51.918Z,11.00
2023-04-07T00:42:05.053Z,10.93
2023-04-07T00:42:17.672Z,11.13
2023-04-07T00:42:31.296Z,11.25
2023-04-07T00:42:43.912Z,11.18
2023-04-07T00:42:56.489Z,10.73
2023-04-07T00:43:09.058Z,10.75
2023-04-07T00:43:21.644Z,11.20
2023-04-07T00:43:34.554Z,11.40
2023-04-07T00:43:48.135Z,11.27
2023-04-07T00:44:00.735Z,11.13
2023-04-07T00:44:13.761Z,11.05
2023-04-07T00:44:27.095Z,10.85
2023-04-07T00:44:39.832Z,11.00
2023-04-07T00:44:52.464Z,10.93
2023-04-07T00:45:06.161Z,11.05
2023-04-07T00:45:20.120Z,11.27
2023-04-07T00:45:32.854Z,11.20
2023-04-07T00:45:45.644Z,11.23
2023-04-07T00:45:58.663Z,11.07
2023-04-07T00:46:12.787Z,11.00
2023-04-07T00:46:25.532Z,11.05
2023-04-07T00:46:38.290Z,11.13
2023-04-07T00:46:52.156Z,10.88
2023-04-07T00:47:04.958Z,10.68
2023-04-07T00:47:17.594Z,10.77
2023-04-07T00:47:30.370Z,11.05
2023-04-07T00:47:43.125Z,10.93
2023-04-07T00:47:57.356Z,10.98
2023-04-07T00:48:11.830Z,10.93
2023-04-07T00:48:24.752Z,11.30
2023-04-07T00:48:37.706Z,11.45
2023-04-07T00:48:50.405Z,11.50
2023-04-07T00:49:03.145Z,11.35
2023-04-07T00:49:17.845Z,11.20
2023-04-07T00:49:31.659Z,11.18
2023-04-07T00:49:45.310Z,11.07
2023-04-07T00:49:58.163Z,11.02
2023-04-07T00:50:11.404Z,11.00
2023-04-07T00:50:24.191Z,10.93
2023-04-07T00:50:36.813Z,11.13
2023-04-07T00:50:49.474Z,11.20
2023-04-07T00:51:02.574Z,11.25
2023-04-07T00:51:16.749Z,11.35
2023-04-07T00:51:29.740Z,11.07
2023-04-07T00:51:42.381Z,10.85
2023-04-07T00:51:55.577Z,11.25
2023-04-07T00:52:11.345Z,11.50
2023-04-07T00:52:28.969Z,11.23
2023-04-07T00:52:42.246Z,10.95
2023-04-07T00:52:57.074Z,11.10
2023-04-07T00:53:09.713Z,11.07
2023-04-07T00:53:22.792Z,11.13
2023-04-07T00:53:35.508Z,10.95
2023-04-07T00:53:48.538Z,10.98
2023-04-07T00:54:01.809Z,10.77
2023-04-07T00:54:15.122Z,10.55
2023-04-07T00:54:28.805Z,10.68
2023-04-07T00:54:42.780Z,11.27
2023-04-07T00:54:55.923Z,11.57
2023-04-07T00:55:09.467Z,11.63
2023-04-07T00:55:22.102Z,11.50
2023-04-07T00:55:36.054Z,11.32
2023-04-07T00:55:48.779Z,11.38
2023-04-07T00:56:01.394Z,11.40
2023-04-07T00:56:14.020Z,11.20
2023-04-07T00:56:27.596Z,11.18
2023-04-07T00:56:41.879Z,11.18
2023-04-07T00:56:55.809Z,11.27
2023-04-07T00:57:08.443Z,11.52
2023-04-07T00:57:22.739Z,11.82
2023-04-07T00:57:35.374Z,11.40
2023-04-07T00:57:48.011Z,11.18
2023-04-07T00:58:00.613Z,11.60
2023-04-07T00:58:13.227Z,11.60
2023-04-07T00:58:26.000Z,11.40
2023-04-07T00:58:39.790Z,11.18
2023-04-07T00:58:52.449Z,11.35
2023-04-07T00:59:05.761Z,11.30
2023-04-07T00:59:18.836Z,11.20
2023-04-07T00:59:32.656Z,11.32
2023-04-07T00:59:45.364Z,11.80
2023-04-07T00:59:58.501Z,11.48
2023-04-07T01:00:12.890Z,11.55
2023-04-07T01:00:26.889Z,12.05
2023-04-07T01:00:45.760Z,11.88
2023-04-07T01:01:07.575Z,11.82
2023-04-07T01:01:24.971Z,12.02
2023-04-07T01:01:44.189Z,12.60
2023-04-07T01:02:05.574Z,12.30
2023-04-07T01:02:23.426Z,12.10
2023-04-07T01:02:41.638Z,12.13
2023-04-07T01:03:00.586Z,12.75
2023-04-07T01:03:19.375Z,12.52
2023-04-07T01:03:37.845Z,11.95
2023-04-07T01:03:58.400Z,11.30
2023-04-07T01:04:20.926Z,11.60
2023-04-07T01:04:44.141Z,11.63
2023-04-07T01:05:07.749Z,11.15
2023-04-07T01:05:27.301Z,11.32
2023-04-07T01:05:50.713Z,11.30
2023-04-07T01:06:06.894Z,11.48
2023-04-07T01:06:24.112Z,11.77
2023-04-07T01:06:48.021Z,12.38
2023-04-07T01:07:06.745Z,12.50
2023-04-07T01:07:24.544Z,11.77
2023-04-07T01:07:44.198Z,11.50
2023-04-07T01:08:05.543Z,11.38
2023-04-07T01:08:21.997Z,11.70
2023-04-07T01:08:44.659Z,12.10
2023-04-07T01:09:02.805Z,12.13
2023-04-07T01:09:21.773Z,12.23
2023-04-07T01:09:38.775Z,12.43
2023-04-07T01:10:00.573Z,12.40
2023-04-07T01:10:20.499Z,12.15
2023-04-07T01:10:41.365Z,12.25
2023-04-07T01:10:59.177Z,12.25
2023-04-07T01:11:24.831Z,11.98
2023-04-07T01:11:45.461Z,11.85
2023-04-07T01:12:07.561Z,11.82
2023-04-07T01:12:29.302Z,11.90
2023-04-07T01:12:52.993Z,12.20
2023-04-07T01:13:13.062Z,11.95
2023-04-07T01:13:32.260Z,11.77
2023-04-07T01:13:50.312Z,11.50
2023-04-07T01:14:03.870Z,11.65
2023-04-07T01:14:18.918Z,11.63
2023-04-07T01:14:38.568Z,11.57
2023-04-07T01:14:54.483Z,12.00
2023-04-07T01:15:12.326Z,12.43
2023-04-07T01:15:30.671Z,12.18
2023-04-07T01:15:47.269Z,11.88
2023-04-07T01:16:04.616Z,11.90
2023-04-07T01:16:24.022Z,11.73
2023-04-07T01:16:43.606Z,11.80
2023-04-07T01:16:58.067Z,12.00
2023-04-07T01:17:13.131Z,11.93
2023-04-07T01:17:28.330Z,11.60
2023-04-07T01:17:45.702Z,11.45
2023-04-07T01:18:05.545Z,11.40
2023-04-07T01:18:22.347Z,11.93
2023-04-07T01:18:37.907Z,12.43
2023-04-07T01:18:54.395Z,12.13
2023-04-07T01:19:15.875Z,11.55
2023-04-07T01:19:39.935Z,11.70
2023-04-07T01:19:59.408Z,11.80
2023-04-07T01:20:17.370Z,12.02
2023-04-07T01:20:33.054Z,12.18
2023-04-07T01:20:49.063Z,12.07
2023-04-07T01:21:06.074Z,11.65
2023-04-07T01:21:21.091Z,11.70
2023-04-07T01:21:35.356Z,11.90
2023-04-07T01:21:52.342Z,11.35
2023-04-07T01:22:10.836Z,11.48
2023-04-07T01:22:27.538Z,11.77
2023-04-07T01:22:43.659Z,12.18
2023-04-07T01:22:58.805Z,12.27
2023-04-07T01:23:20.268Z,12.20
2023-04-07T01:23:47.851Z,11.93
2023-04-07T01:24:10.406Z,11.35
2023-04-07T01:24:49.555Z,11.98
2023-04-07T01:25:30.521Z,12.10
2023-04-07T01:26:06.602Z,11.77
2023-04-07T01:26:22.035Z,11.85
2023-04-07T01:26:36.125Z,11.50
2023-04-07T01:26:51.480Z,11.88
2023-04-07T01:27:19.164Z,12.07
2023-04-07T01:27:43.751Z,11.65
2023-04-07T01:28:15.951Z,11.95
2023-04-07T01:29:08.716Z,12.40
2023-04-07T01:29:33.832Z,11.80
2023-04-07T01:29:48.289Z,11.68
2023-04-07T01:30:03.633Z,11.93
2023-04-07T01:30:17.766Z,11.80
2023-04-07T01:30:34.499Z,11.55
2023-04-07T01:30:48.186Z,12.00
2023-04-07T01:31:02.450Z,12.15
2023-04-07T01:31:17.091Z,11.80
2023-04-07T01:31:30.970Z,11.65
2023-04-07T01:31:44.987Z,11.60
2023-04-07T01:32:00.046Z,11.23
2023-04-07T01:32:15.652Z,11.38
2023-04-07T01:32:30.638Z,11.65
2023-04-07T01:32:45.810Z,11.68
2023-04-07T01:33:00.352Z,11.15
2023-04-07T01:33:14.800Z,10.77
2023-04-07T01:33:32.169Z,11.30
2023-04-07T01:33:46.487Z,11.05
2023-04-07T01:34:03.969Z,11.13
2023-04-07T01:34:17.934Z,11.38
2023-04-07T01:34:32.775Z,11.05
2023-04-07T01:34:48.090Z,11.43
2023-04-07T01:35:02.051Z,11.77
2023-04-07T01:35:16.036Z,11.73
2023-04-07T01:35:33.354Z,11.88
2023-04-07T01:35:47.025Z,11.90
2023-04-07T01:36:01.404Z,11.95
2023-04-07T01:36:16.549Z,12.15
2023-04-07T01:36:31.610Z,12.10
2023-04-07T01:36:45.884Z,11.40
2023-04-07T01:37:01.749Z,10.95
2023-04-07T01:37:17.118Z,11.00
2023-04-07T01:37:30.163Z,11.27
2023-04-07T01:37:46.562Z,11.40
2023-04-07T01:38:00.490Z,11.55
2023-04-07T01:38:14.236Z,11.85
2023-04-07T01:38:27.523Z,11.88
2023-04-07T01:38:41.238Z,11.68
2023-04-07T01:38:54.829Z,11.40
2023-04-07T01:39:08.878Z,11.23
2023-04-07T01:39:21.986Z,10.98
2023-04-07T01:39:36.216Z,11.20
2023-04-07T01:39:48.766Z,11.60
2023-04-07T01:40:01.812Z,11.60
2023-04-07T01:40:15.745Z,11.27
2023-04-07T01:40:30.212Z,10.88
2023-04-07T01:40:45.657Z,11.07
2023-04-07T01:41:00.732Z,11.40
2023-04-07T01:41:15.659Z,11.77
2023-04-07T01:41:30.308Z,11.98
2023-04-07T01:41:44.574Z,12.00
2023-04-07T01:41:58.207Z,12.10
2023-04-07T01:42:11.899Z,11.77
2023-04-07T01:42:27.476Z,11.45
2023-04-07T01:42:40.699Z,11.75
2023-04-07T01:42:55.010Z,11.70
2023-04-07T01:43:08.444Z,11.10
2023-04-07T01:43:22.361Z,11.35
2023-04-07T01:43:37.652Z,11.57
2023-04-07T01:43:52.568Z,11.40
2023-04-07T01:44:07.903Z,11.48
2023-04-07T01:44:21.246Z,11.63
2023-04-07T01:44:36.886Z,11.70
2023-04-07T01:44:51.218Z,11.70
2023-04-07T01:45:06.126Z,11.20
2023-04-07T01:45:20.641Z,11.60
2023-04-07T01:45:36.368Z,12.20
2023-04-07T01:45:50.713Z,11.77
2023-04-07T01:46:04.659Z,11.43
2023-04-07T01:46:17.273Z,11.18
2023-04-07T01:46:29.981Z,11.27
2023-04-07T01:46:43.642Z,11.93
2023-04-07T01:46:56.978Z,11.70
2023-04-07T01:47:10.338Z,11.40
2023-04-07T01:47:23.577Z,11.70
2023-04-07T01:47:37.661Z,11.60
2023-04-07T01:47:51.722Z,11.30
2023-04-07T01:48:06.438Z,11.25
2023-04-07T01:48:20.422Z,11.73
2023-04-07T01:48:35.690Z,12.00
2023-04-07T01:48:49.600Z,12.23
2023-04-07T01:49:03.181Z,12.20
2023-04-07T01:49:16.081Z,11.90
2023-04-07T01:49:30.295Z,12.18
2023-04-07T01:49:46.421Z,11.82
2023-04-07T01:50:00.192Z,11.70
2023-04-07T01:50:13.678Z,11.85
2023-04-07T01:50:27.338Z,11.80
2023-04-07T01:50:40.215Z,11.88
2023-04-07T01:50:56.297Z,11.90
2023-04-07T01:51:12.029Z,11.73
2023-04-07T01:51:27.527Z,11.80
2023-04-07T01:51:41.924Z,11.65
2023-04-07T01:51:55.716Z,12.05
2023-04-07T01:52:09.397Z,11.90
2023-04-07T01:52:22.551Z,11.25
2023-04-07T01:52:35.910Z,11.55
2023-04-07T01:52:49.138Z,11.50
2023-04-07T01:53:03.743Z,11.50
2023-04-07T01:53:17.344Z,11.70
2023-04-07T01:53:30.527Z,11.90
2023-04-07T01:53:44.586Z,11.85
2023-04-07T01:53:57.947Z,11.88
2023-04-07T01:54:10.933Z,11.85
2023-04-07T01:54:24.212Z,12.00
2023-04-07T01:54:37.369Z,12.20
2023-04-07T01:54:50.399Z,12.07
2023-04-07T01:55:03.762Z,11.77
2023-04-07T01:55:17.374Z,11.80
2023-04-07T01:55:30.516Z,11.80
2023-04-07T01:55:43.564Z,11.88
2023-04-07T01:55:56.151Z,12.10
2023-04-07T01:56:08.905Z,12.00
2023-04-07T01:56:21.514Z,11.50
2023-04-07T01:56:34.213Z,11.38
2023-04-07T01:56:47.909Z,11.48
2023-04-07T01:57:01.493Z,11.65
2023-04-07T01:57:14.063Z,11.82
2023-04-07T01:57:26.642Z,11.77
2023-04-07T01:57:39.440Z,12.18
2023-04-07T01:57:53.759Z,11.98
2023-04-07T01:58:06.704Z,11.90
2023-04-07T01:58:20.576Z,12.18
2023-04-07T01:58:33.187Z,12.15
2023-04-07T01:58:45.837Z,11.93
2023-04-07T01:58:58.384Z,11.95
2023-04-07T01:59:11.208Z,11.88
2023-04-07T01:59:25.453Z,11.77
2023-04-07T01:59:39.391Z,11.98
2023-04-07T01:59:53.044Z,11.98
2023-04-07T02:00:07.127Z,11.65
2023-04-07T02:00:19.780Z,11.63
2023-04-07T02:00:34.277Z,11.98
2023-04-07T02:00:47.127Z,11.70
2023-04-07T02:00:59.929Z,11.70
2023-04-07T02:01:14.985Z,12.02
2023-04-07T02:01:29.203Z,12.15
2023-04-07T02:01:42.314Z,12.15
2023-04-07T02:01:55.075Z,12.32
2023-04-07T02:02:07.853Z,12.27
2023-04-07T02:02:20.772Z,12.25
2023-04-07T02:02:42.107Z,11.98
2023-04-07T02:03:01.733Z,12.10
2023-04-07T02:03:21.262Z,12.07
2023-04-07T02:03:40.810Z,12.18
2023-04-07T02:03:57.319Z,11.98
2023-04-07T02:04:18.800Z,12.00
2023-04-07T02:04:37.290Z,12.05
2023-04-07T02:04:54.845Z,12.13
2023-04-07T02:05:12.128Z,12.02
2023-04-07T02:05:28.056Z,12.35
2023-04-07T02:05:40.876Z,12.23
2023-04-07T02:05:57.966Z,11.95
2023-04-07T02:06:14.860Z,12.50
2023-04-07T02:06:31.865Z,12.68
2023-04-07T02:06:52.718Z,12.13
2023-04-07T02:07:10.821Z,11.95
2023-04-07T02:07:29.758Z,12.23
2023-04-07T02:07:51.169Z,11.80
2023-04-07T02:08:08.356Z,12.07
2023-04-07T02:08:24.187Z,12.10
2023-04-07T02:08:39.402Z,12.15
2023-04-07T02:08:57.492Z,12.30
2023-04-07T02:09:14.747Z,12.27
2023-04-07T02:09:31.758Z,11.93
2023-04-07T02:09:46.487Z,12.23
2023-04-07T02:10:02.752Z,12.80
2023-04-07T02:10:17.588Z,12.90
2023-04-07T02:10:33.157Z,12.50
2023-04-07T02:10:48.771Z,12.07
2023-04-07T02:11:04.120Z,12.10
2023-04-07T02:11:18.901Z,12.52
2023-04-07T02:11:33.311Z,12.52
2023-04-07T02:11:46.367Z,12.50
2023-04-07T02:12:02.204Z,12.52
2023-04-07T02:12:16.133Z,12.30
2023-04-07T02:12:31.271Z,12.18
2023-04-07T02:12:47.704Z,12.15
2023-04-07T02:13:02.008Z,12.60
2023-04-07T02:13:18.738Z,12.65
2023-04-07T02:13:33.076Z,12.40
2023-04-07T02:13:47.218Z,12.07
2023-04-07T02:14:02.690Z,11.77
2023-04-07T02:14:17.838Z,12.18
2023-04-07T02:14:30.827Z,12.68
2023-04-07T02:14:44.975Z,12.25
2023-04-07T02:14:59.090Z,11.80
2023-04-07T02:15:12.994Z,12.23
2023-04-07T02:15:27.168Z,12.68
2023-04-07T02:15:41.495Z,12.63
2023-04-07T02:15:56.241Z,12.35
2023-04-07T02:16:11.319Z,12.32
2023-04-07T02:16:25.616Z,12.50
2023-04-07T02:16:41.903Z,12.50
2023-04-07T02:16:56.340Z,12.38
2023-04-07T02:17:09.811Z,11.93
2023-04-07T02:17:24.781Z,11.70
2023-04-07T02:17:42.603Z,12.00
2023-04-07T02:17:57.120Z,12.10
2023-04-07T02:18:10.770Z,12.23
2023-04-07T02:18:25.461Z,12.20
2023-04-07T02:18:38.802Z,12.27
2023-04-07T02:18:51.685Z,12.40
2023-04-07T02:19:06.456Z,12.57
2023-04-07T02:19:19.475Z,12.65
2023-04-07T02:19:33.014Z,12.52
2023-04-07T02:19:47.838Z,12.55
2023-04-07T02:20:02.513Z,12.60
2023-04-07T02:20:17.057Z,12.82
2023-04-07T02:20:31.910Z,12.70
2023-04-07T02:20:46.397Z,12.20
2023-04-07T02:21:01.365Z,12.20
2023-04-07T02:21:15.761Z,12.23
2023-04-07T02:21:30.672Z,12.00
2023-04-07T02:21:45.838Z,12.32
2023-04-07T02:22:01.484Z,12.50
2023-04-07T02:22:16.587Z,12.18
2023-04-07T02:22:29.996Z,12.40
2023-04-07T02:22:44.746Z,12.48
2023-04-07T02:22:57.924Z,12.32
2023-04-07T02:23:10.739Z,12.07
2023-04-07T02:23:23.360Z,12.23
2023-04-07T02:23:36.181Z,11.93
2023-04-07T02:23:49.802Z,11.95
2023-04-07T02:24:02.972Z,12.10
2023-04-07T02:24:20.016Z,12.70
2023-04-07T02:24:32.725Z,12.50
2023-04-07T02:24:45.514Z,12.02
2023-04-07T02:24:58.222Z,12.18
2023-04-07T02:25:24.117Z,12.30
2023-04-07T02:25:38.943Z,11.95
2023-04-07T02:25:51.557Z,12.15
2023-04-07T02:26:04.208Z,12.60
2023-04-07T02:26:16.849Z,12.45
2023-04-07T02:26:35.341Z,11.88
2023-04-07T02:26:48.380Z,11.48
2023-04-07T02:27:02.158Z,11.88
2023-04-07T02:27:16.156Z,11.90
2023-04-07T02:27:28.778Z,11.63
2023-04-07T02:27:41.360Z,11.82
2023-04-07T02:27:55.458Z,11.75
2023-04-07T02:28:08.251Z,11.52
2023-04-07T02:28:21.006Z,11.73
2023-04-07T02:28:33.610Z,11.98
2023-04-07T02:28:47.332Z,12.10
2023-04-07T02:29:00.300Z,12.07
2023-04-07T02:29:12.931Z,12.05
2023-04-07T02:29:25.608Z,12.30
2023-04-07T02:29:38.237Z,12.35
2023-04-07T02:29:52.195Z,12.23
2023-04-07T02:30:06.176Z,11.98
2023-04-07T02:30:19.073Z,12.10
2023-04-07T02:30:32.748Z,12.32
2023-04-07T02:30:45.814Z,12.45
2023-04-07T02:30:58.435Z,12.25
2023-04-07T02:31:13.678Z,12.20
2023-04-07T02:31:26.464Z,12.05
2023-04-07T02:31:39.203Z,12.13
2023-04-07T02:31:51.890Z,12.27
2023-04-07T02:32:06.851Z,12.27
2023-04-07T02:32:19.478Z,12.27
2023-04-07T02:32:32.366Z,12.00
2023-04-07T02:32:45.852Z,11.77
2023-04-07T02:32:58.561Z,11.88
2023-04-07T02:33:11.305Z,12.18
2023-04-07T02:33:23.920Z,12.40
2023-04-07T02:33:36.522Z,12.40
2023-04-07T02:33:49.121Z,11.88
2023-04-07T02:34:02.734Z,11.57
2023-04-07T02:34:15.604Z,11.30
2023-04-07T02:34:28.231Z,11.30
2023-04-07T02:34:42.033Z,11.70
2023-04-07T02:34:54.971Z,11.90
2023-04-07T02:35:08.229Z,11.77
2023-04-07T02:35:21.279Z,11.52
2023-04-07T02:35:34.856Z,11.88
2023-04-07T02:35:47.464Z,11.82
2023-04-07T02:36:00.092Z,11.60
2023-04-07T02:36:12.690Z,11.50
2023-04-07T02:36:26.482Z,11.25
2023-04-07T02:36:39.172Z,11.45
2023-04-07T02:36:51.803Z,11.63
2023-04-07T02:37:04.459Z,11.40
2023-04-07T02:37:18.032Z,11.52
2023-04-07T02:37:30.696Z,11.27
2023-04-07T02:37:43.917Z,11.35
2023-04-07T02:37:56.532Z,11.50
2023-04-07T02:38:09.185Z,11.45
2023-04-07T02:38:21.830Z,11.10
2023-04-07T02:38:34.677Z,11.55
2023-04-07T02:38:47.260Z,11.80
2023-04-07T02:39:00.944Z,11.73
2023-04-07T02:39:13.847Z,11.50
2023-04-07T02:39:26.697Z,11.65
2023-04-07T02:39:39.294Z,11.65
2023-04-07T02:39:51.861Z,11.90
2023-04-07T02:40:05.139Z,12.23
2023-04-07T02:40:18.076Z,11.90
2023-04-07T02:40:31.738Z,11.43
2023-04-07T02:40:44.293Z,11.63
2023-04-07T02:40:56.941Z,11.70
2023-04-07T02:41:09.628Z,11.68
2023-04-07T02:41:22.424Z,11.50
2023-04-07T02:41:35.071Z,11.55
2023-04-07T02:41:48.692Z,11.75
2023-04-07T02:42:01.507Z,11.65
2023-04-07T02:42:14.168Z,11.57
2023-04-07T02:42:27.036Z,11.32
2023-04-07T02:42:39.989Z,11.23
2023-04-07T02:42:52.613Z,11.38
2023-04-07T02:43:05.342Z,11.32
2023-04-07T02:43:19.446Z,11.40
2023-04-07T02:43:32.049Z,11.40
2023-04-07T02:43:44.617Z,11.45
2023-04-07T02:43:57.588Z,11.43
2023-04-07T02:44:10.662Z,11.32
2023-04-07T02:44:23.288Z,11.48
2023-04-07T02:44:35.980Z,11.73
2023-04-07T02:44:48.565Z,11.70
2023-04-07T02:45:02.663Z,12.05
2023-04-07T02:45:16.521Z,11.98
2023-04-07T02:45:29.135Z,11.82
2023-04-07T02:45:41.735Z,11.85
2023-04-07T02:45:55.000Z,11.95
2023-04-07T02:46:08.951Z,12.50
2023-04-07T02:46:21.654Z,12.45
2023-04-07T02:46:35.447Z,12.02
2023-04-07T02:46:48.088Z,12.02
2023-04-07T02:47:00.788Z,11.95
2023-04-07T02:47:13.472Z,11.63
2023-04-07T02:47:26.447Z,11.50
2023-04-07T02:47:39.938Z,11.70
2023-04-07T02:47:52.625Z,11.75
2023-04-07T02:48:06.733Z,11.65
2023-04-07T02:48:19.319Z,11.35
2023-04-07T02:48:32.105Z,11.45
2023-04-07T02:48:44.870Z,11.50
2023-04-07T02:48:57.442Z,11.32
2023-04-07T02:49:10.235Z,11.20
2023-04-07T02:49:23.820Z,11.43
2023-04-07T02:49:36.445Z,12.00
2023-04-07T02:49:49.048Z,12.13
2023-04-07T02:50:02.260Z,11.88
2023-04-07T02:50:14.901Z,11.73
2023-04-07T02:50:29.229Z,11.35
2023-04-07T02:50:42.108Z,11.65
2023-04-07T02:50:55.672Z,12.05
2023-04-07T02:51:08.307Z,12.45
2023-04-07T02:51:21.031Z,12.43
2023-04-07T02:51:33.856Z,12.27
2023-04-07T02:51:47.071Z,11.80
2023-04-07T02:51:59.690Z,11.95
2023-04-07T02:52:12.920Z,12.20
2023-04-07T02:52:25.581Z,12.20
2023-04-07T02:52:39.186Z,11.93
2023-04-07T02:52:51.765Z,11.90
2023-04-07T02:53:04.364Z,11.77
2023-04-07T02:53:16.990Z,11.90
2023-04-07T02:53:29.653Z,11.48
2023-04-07T02:53:42.486Z,11.55
2023-04-07T02:53:55.542Z,11.85
2023-04-07T02:54:09.564Z,11.77
2023-04-07T02:54:22.232Z,11.70
2023-04-07T02:54:34.835Z,11.90
2023-04-07T02:54:47.734Z,12.20
2023-04-07T02:55:01.062Z,12.05
2023-04-07T02:55:13.797Z,12.18
2023-04-07T02:55:26.703Z,12.45
2023-04-07T02:55:40.347Z,12.35
2023-04-07T02:55:52.921Z,12.23
2023-04-07T02:56:05.867Z,12.30
2023-04-07T02:56:18.602Z,12.23
2023-04-07T02:56:31.446Z,12.23
2023-04-07T02:56:45.045Z,12.18
2023-04-07T02:56:57.703Z,12.15
2023-04-07T02:57:10.494Z,12.50
2023-04-07T02:57:23.312Z,12.40
2023-04-07T02:57:36.205Z,12.07
2023-04-07T02:57:48.827Z,12.02
2023-04-07T02:58:01.384Z,12.07
2023-04-07T02:58:14.023Z,12.27
2023-04-07T02:58:27.719Z,12.15
2023-04-07T02:58:40.375Z,11.90
2023-04-07T02:58:52.939Z,11.90
2023-04-07T02:59:05.500Z,11.75
2023-04-07T02:59:18.291Z,11.90
2023-04-07T02:59:31.014Z,11.80
2023-04-07T02:59:43.645Z,12.07
2023-04-07T02:59:58.104Z,12.13
2023-04-07T03:00:14.391Z,12.30
2023-04-07T03:00:27.062Z,12.10
2023-04-07T03:00:39.678Z,12.00
2023-04-07T03:00:52.330Z,12.18
2023-04-07T03:01:06.724Z,12.05
2023-04-07T03:01:20.695Z,11.60
2023-04-07T03:01:34.947Z,12.30
2023-04-07T03:01:47.777Z,13.45
2023-04-07T03:02:00.708Z,13.10
2023-04-07T03:02:13.587Z,12.55
2023-04-07T03:02:26.570Z,12.13
2023-04-07T03:02:40.556Z,11.95
2023-04-07T03:02:53.417Z,12.05
2023-04-07T03:03:06.854Z,12.35
2023-04-07T03:03:19.924Z,12.27
2023-04-07T03:03:33.013Z,12.32
2023-04-07T03:03:47.831Z,12.38
2023-04-07T03:04:01.825Z,12.45
2023-04-07T03:04:14.970Z,12.25
2023-04-07T03:04:28.276Z,12.60
2023-04-07T03:04:41.028Z,13.13
2023-04-07T03:04:53.746Z,13.45
2023-04-07T03:05:06.696Z,13.10
2023-04-07T03:05:19.707Z,13.07
2023-04-07T03:05:32.318Z,13.13
2023-04-07T03:05:45.926Z,12.82